Time,TemperatureF,DewpointF,PressureIn,WindDirection,WindDirectionDegrees,WindSpeedMPH,WindSpeedGustMPH,Humidity,HourlyPrecipIn,Conditions,Clouds,dailyrainin,SoftwareType,DateUTC
2013-04-11 00:01:00,35.3,30.1,29.85,East,79,3.0,3.0,81,0.01,,OVC038,0.00,VWS V14.01,2013-04-11 05:01:00,
2013-04-11 00:06:00,35.4,30.5,29.85,ENE,74,2.0,4.0,82,0.00,,OVC038,0.00,VWS V14.01,2013-04-11 05:06:00,
2013-04-11 00:12:00,35.2,30.6,29.85,East,84,3.0,5.0,83,0.00,,OVC038,0.00,VWS V14.01,2013-04-11 05:12:00,
2013-04-11 00:19:00,35.0,30.4,29.84,ENE,61,4.0,4.0,83,0.00,,OVC038,0.00,VWS V14.01,2013-04-11 05:19:00,
2013-04-11 00:25:00,34.9,30.6,29.84,NNE,33,3.0,8.0,84,0.00,,OVC038,0.00,VWS V14.01,2013-04-11 05:25:00,
2013-04-11 00:30:00,34.7,30.7,29.83,ENE,74,2.0,6.0,85,0.00,,OVC038,0.00,VWS V14.01,2013-04-11 05:30:00,
2013-04-11 00:37:00,34.6,30.9,29.82,East,90,7.0,7.0,86,0.01,,OVC038,0.01,VWS V14.01,2013-04-11 05:37:00,
2013-04-11 00:43:00,34.4,30.6,29.82,ESE,105,0.0,4.0,86,0.01,,OVC038,0.01,VWS V14.01,2013-04-11 05:43:00,
2013-04-11 00:49:00,34.4,30.9,29.82,East,91,2.0,2.0,87,0.01,,OVC038,0.01,VWS V14.01,2013-04-11 05:49:00,
2013-04-11 00:55:00,34.3,30.8,29.82,East,98,2.0,5.0,87,0.01,,OVC038,0.01,VWS V14.01,2013-04-11 05:55:00,
2013-04-11 01:00:00,34.3,30.8,29.82,ENE,75,1.0,8.0,87,0.01,,OVC038,0.01,VWS V14.01,2013-04-11 06:00:00,
2013-04-11 01:05:00,34.3,30.6,29.82,East,82,3.0,3.0,86,0.01,,OVC036,0.01,VWS V14.01,2013-04-11 06:05:00,
2013-04-11 01:10:00,34.4,30.4,29.82,East,96,4.0,6.0,85,0.01,,OVC036,0.01,VWS V14.01,2013-04-11 06:10:00,
2013-04-11 01:15:00,34.5,30.2,29.82,East,88,9.0,9.0,84,0.01,,OVC036,0.01,VWS V14.01,2013-04-11 06:15:00,
2013-04-11 01:20:00,34.6,30.0,29.81,ENE,61,7.0,7.0,83,0.01,,OVC036,0.01,VWS V14.01,2013-04-11 06:20:00,
2013-04-11 01:25:00,34.8,29.9,29.80,East,79,4.0,7.0,82,0.01,,OVC036,0.01,VWS V14.01,2013-04-11 06:25:00,
2013-04-11 01:30:00,34.9,29.7,29.81,ENE,77,8.0,9.0,81,0.01,,OVC036,0.01,VWS V14.01,2013-04-11 06:30:00,
2013-04-11 01:35:00,35.1,29.6,29.80,ENE,70,4.0,8.0,80,0.01,,OVC036,0.01,VWS V14.01,2013-04-11 06:35:00,
2013-04-11 01:40:00,35.2,29.4,29.79,ENE,74,4.0,11.0,79,0.00,,OVC036,0.01,VWS V14.01,2013-04-11 06:40:00,
2013-04-11 01:45:00,35.3,29.1,29.79,East,79,6.0,9.0,78,0.00,,OVC036,0.01,VWS V14.01,2013-04-11 06:45:00,
2013-04-11 01:50:00,35.4,28.9,29.78,ENE,68,8.0,8.0,77,0.00,,OVC036,0.01,VWS V14.01,2013-04-11 06:50:00,
2013-04-11 01:55:00,35.4,28.9,29.78,ENE,75,5.0,12.0,77,0.00,,OVC036,0.01,VWS V14.01,2013-04-11 06:55:00,
2013-04-11 02:00:00,35.4,28.6,29.77,ENE,61,6.0,11.0,76,0.00,,OVC036,0.01,VWS V14.01,2013-04-11 07:00:00,
2013-04-11 02:06:00,35.4,28.6,29.77,ENE,72,3.0,7.0,76,0.00,,OVC036,0.01,VWS V14.01,2013-04-11 07:06:00,
2013-04-11 02:12:00,35.4,28.6,29.76,East,81,3.0,5.0,76,0.00,,OVC036,0.01,VWS V14.01,2013-04-11 07:12:00,
2013-04-11 02:18:00,35.2,28.7,29.76,East,89,4.0,6.0,77,0.00,,OVC036,0.01,VWS V14.01,2013-04-11 07:18:00,
2013-04-11 02:24:00,35.2,28.4,29.76,ENE,71,4.0,7.0,76,0.00,,OVC036,0.01,VWS V14.01,2013-04-11 07:24:00,
2013-04-11 02:30:00,35.3,27.5,29.75,NE,46,8.0,12.0,73,0.01,,OVC036,0.02,VWS V14.01,2013-04-11 07:30:00,
2013-04-11 02:35:00,35.6,27.1,29.75,NE,53,5.0,11.0,71,0.01,,OVC034,0.02,VWS V14.01,2013-04-11 07:35:00,
2013-04-11 02:40:00,35.8,27.0,29.76,ENE,67,13.0,13.0,70,0.01,,OVC034,0.02,VWS V14.01,2013-04-11 07:40:00,
2013-04-11 02:45:00,35.8,26.6,29.75,ENE,63,5.0,13.0,69,0.01,,OVC034,0.02,VWS V14.01,2013-04-11 07:45:00,
2013-04-11 02:50:00,35.9,26.4,29.75,East,79,6.0,16.0,68,0.01,,OVC040,0.02,VWS V14.01,2013-04-11 07:50:00,
2013-04-11 02:55:00,35.8,26.3,29.75,ENE,75,9.0,9.0,68,0.01,,OVC040,0.02,VWS V14.01,2013-04-11 07:55:00,
2013-04-11 03:00:00,35.6,26.5,29.76,ENE,61,5.0,9.0,69,0.01,,OVC040,0.02,VWS V14.01,2013-04-11 08:00:00,
2013-04-11 03:06:00,35.4,26.6,29.76,East,99,10.0,10.0,70,0.01,,OVC040,0.02,VWS V14.01,2013-04-11 08:06:00,
2013-04-11 03:12:00,35.2,27.1,29.75,East,98,5.0,8.0,72,0.01,,OVC040,0.02,VWS V14.01,2013-04-11 08:12:00,
2013-04-11 03:18:00,34.8,27.0,29.75,East,82,5.0,9.0,73,0.01,,OVC032,0.02,VWS V14.01,2013-04-11 08:18:00,
2013-04-11 03:24:00,34.5,27.4,29.75,ENE,61,5.0,7.0,75,0.01,,OVC032,0.02,VWS V14.01,2013-04-11 08:24:00,
2013-04-11 03:30:00,33.8,28.6,29.74,East,91,9.0,11.0,81,0.01,,OVC032,0.02,VWS V14.01,2013-04-11 08:30:00,
2013-04-11 03:35:00,33.4,29.1,29.73,ENE,68,5.0,8.0,84,0.00,,OVC032,0.02,VWS V14.01,2013-04-11 08:35:00,
2013-04-11 03:40:00,33.1,29.4,29.73,ENE,68,5.0,10.0,86,0.00,,OVC032,0.02,VWS V14.01,2013-04-11 08:40:00,
2013-04-11 03:45:00,32.9,29.7,29.73,ENE,64,5.0,13.0,88,0.00,,OVC032,0.02,VWS V14.01,2013-04-11 08:45:00,
2013-04-11 03:50:00,32.7,30.1,29.73,East,94,9.0,11.0,90,0.00,,OVC034,0.02,VWS V14.01,2013-04-11 08:50:00,
2013-04-11 03:55:00,32.6,30.0,29.73,ENE,77,12.0,18.0,90,0.01,,OVC034,0.03,VWS V14.01,2013-04-11 08:55:00,
2013-04-11 04:00:00,32.6,30.5,29.71,East,94,6.0,12.0,92,0.01,,OVC034,0.03,VWS V14.01,2013-04-11 09:00:00,
2013-04-11 04:05:00,32.5,30.4,29.71,East,81,9.0,19.0,92,0.02,,OVC034,0.04,VWS V14.01,2013-04-11 09:05:00,
2013-04-11 04:10:00,32.3,30.5,29.71,NNE,30,3.0,13.0,93,0.03,,OVC034,0.05,VWS V14.01,2013-04-11 09:10:00,
2013-04-11 04:15:00,32.2,30.4,29.70,ENE,74,4.0,7.0,93,0.03,,OVC034,0.05,VWS V14.01,2013-04-11 09:15:00,
2013-04-11 04:20:00,32.2,30.4,29.70,North,355,3.0,11.0,93,0.04,,OVC034,0.06,VWS V14.01,2013-04-11 09:20:00,
2013-04-11 04:25:00,32.1,30.3,29.69,East,82,7.0,13.0,93,0.05,,OVC034,0.07,VWS V14.01,2013-04-11 09:25:00,
2013-04-11 04:30:00,32.1,30.3,29.70,ENE,73,8.0,9.0,93,0.05,,OVC034,0.07,VWS V14.01,2013-04-11 09:30:00,
2013-04-11 04:35:00,32.0,30.2,29.71,East,82,7.0,9.0,93,0.06,,OVC034,0.08,VWS V14.01,2013-04-11 09:35:00,
2013-04-11 04:40:00,31.9,30.1,29.71,ESE,102,4.0,9.0,93,0.07,,OVC034,0.09,VWS V14.01,2013-04-11 09:40:00,
2013-04-11 04:45:00,31.8,29.8,29.72,East,89,9.0,9.0,92,0.07,,OVC034,0.09,VWS V14.01,2013-04-11 09:45:00,
2013-04-11 04:50:00,31.7,29.6,29.73,ENE,74,1.0,9.0,92,0.08,,OVC032,0.10,VWS V14.01,2013-04-11 09:50:00,
2013-04-11 04:55:00,31.7,29.6,29.74,ENE,78,3.0,7.0,92,0.08,,OVC032,0.10,VWS V14.01,2013-04-11 09:55:00,
2013-04-11 05:00:00,31.7,29.6,29.75,ENE,62,1.0,3.0,92,0.07,,OVC032,0.10,VWS V14.01,2013-04-11 10:00:00,
2013-04-11 05:05:00,31.6,29.5,29.75,East,79,3.0,8.0,92,0.08,,OVC032,0.11,VWS V14.01,2013-04-11 10:05:00,
2013-04-11 05:10:00,31.5,29.5,29.75,East,89,3.0,5.0,92,0.07,,OVC032,0.11,VWS V14.01,2013-04-11 10:10:00,
2013-04-11 05:15:00,31.3,29.2,29.75,East,99,3.0,7.0,92,0.06,,OVC032,0.11,VWS V14.01,2013-04-11 10:15:00,
2013-04-11 05:20:00,31.2,29.4,29.76,ENE,74,1.0,4.0,93,0.06,,OVC032,0.11,VWS V14.01,2013-04-11 10:20:00,
2013-04-11 05:25:00,31.1,29.3,29.76,ESE,110,3.0,3.0,93,0.05,,OVC032,0.11,VWS V14.01,2013-04-11 10:25:00,
2013-04-11 05:30:00,31.1,29.3,29.76,East,87,4.0,4.0,93,0.04,,OVC032,0.11,VWS V14.01,2013-04-11 10:30:00,
2013-04-11 05:35:00,31.0,29.2,29.76,ENE,71,1.0,4.0,93,0.04,,OVC034,0.11,VWS V14.01,2013-04-11 10:35:00,
2013-04-11 05:40:00,30.9,29.1,29.77,ENE,64,3.0,4.0,93,0.03,,OVC034,0.11,VWS V14.01,2013-04-11 10:40:00,
2013-04-11 05:45:00,30.8,29.3,29.77,East,79,2.0,4.0,94,0.02,,OVC034,0.11,VWS V14.01,2013-04-11 10:45:00,
2013-04-11 05:50:00,30.7,29.2,29.77,East,84,3.0,4.0,94,0.02,,OVC029,0.11,VWS V14.01,2013-04-11 10:50:00,
2013-04-11 05:55:00,30.6,29.1,29.77,East,79,2.0,3.0,94,0.01,,OVC029,0.11,VWS V14.01,2013-04-11 10:55:00,
2013-04-11 06:00:00,30.5,29.0,29.76,East,82,0.0,2.0,94,0.01,,OVC029,0.11,VWS V14.01,2013-04-11 11:00:00,
2013-04-11 06:05:00,30.5,29.0,29.75,ENE,78,0.0,2.0,94,0.01,,OVC023,0.11,VWS V14.01,2013-04-11 11:05:00,
2013-04-11 06:10:00,30.4,29.1,29.75,NE,53,1.0,4.0,95,0.00,,OVC023,0.11,VWS V14.01,2013-04-11 11:10:00,
2013-04-11 06:15:00,30.4,29.1,29.74,East,96,2.0,2.0,95,0.00,,OVC023,0.11,VWS V14.01,2013-04-11 11:15:00,
2013-04-11 06:20:00,30.4,29.1,29.74,NE,36,3.0,3.0,95,0.00,,OVC023,0.11,VWS V14.01,2013-04-11 11:20:00,
2013-04-11 06:25:00,30.3,29.0,29.74,ENE,67,0.0,5.0,95,0.00,,OVC023,0.11,VWS V14.01,2013-04-11 11:25:00,
2013-04-11 06:30:00,30.2,28.9,29.74,ENE,64,0.0,1.0,95,0.00,,OVC023,0.11,VWS V14.01,2013-04-11 11:30:00,
2013-04-11 06:35:00,30.2,28.9,29.73,ENE,77,1.0,4.0,95,0.00,,OVC022,0.11,VWS V14.01,2013-04-11 11:35:00,
2013-04-11 06:40:00,30.1,28.8,29.73,East,82,0.0,2.0,95,0.00,,OVC022,0.11,VWS V14.01,2013-04-11 11:40:00,
2013-04-11 06:45:00,30.2,28.9,29.73,ENE,74,1.0,1.0,95,0.00,,OVC022,0.11,VWS V14.01,2013-04-11 11:45:00,
2013-04-11 06:50:00,30.1,28.8,29.73,East,101,2.0,2.0,95,0.00,,OVC007,0.11,VWS V14.01,2013-04-11 11:50:00,
2013-04-11 06:55:00,30.1,28.8,29.72,ENE,76,0.0,3.0,95,0.00,,OVC007,0.11,VWS V14.01,2013-04-11 11:55:00,
2013-04-11 07:00:00,30.1,28.8,29.72,NE,53,0.0,3.0,95,0.00,,OVC007,0.11,VWS V14.01,2013-04-11 12:00:00,
2013-04-11 07:05:00,30.0,29.0,29.72,NNE,27,0.0,2.0,96,0.00,,OVC004,0.11,VWS V14.01,2013-04-11 12:05:00,
2013-04-11 07:10:00,30.0,29.0,29.72,NNE,13,2.0,4.0,96,0.00,,OVC004,0.11,VWS V14.01,2013-04-11 12:10:00,
2013-04-11 07:15:00,30.1,29.1,29.72,East,79,0.0,2.0,96,0.00,,OVC004,0.11,VWS V14.01,2013-04-11 12:15:00,
2013-04-11 07:20:00,30.0,29.0,29.71,ENE,61,2.0,3.0,96,0.00,,OVC004,0.11,VWS V14.01,2013-04-11 12:20:00,
2013-04-11 07:25:00,30.0,29.0,29.71,NE,42,1.0,4.0,96,0.00,,OVC004,0.11,VWS V14.01,2013-04-11 12:25:00,
2013-04-11 07:30:00,30.0,29.0,29.71,NE,44,2.0,2.0,96,0.00,,OVC004,0.11,VWS V14.01,2013-04-11 12:30:00,
2013-04-11 07:35:00,30.0,29.0,29.71,East,79,1.0,2.0,96,0.00,,OVC004,0.11,VWS V14.01,2013-04-11 12:35:00,
2013-04-11 07:40:00,30.1,29.1,29.71,ENE,61,2.0,3.0,96,0.00,,OVC004,0.11,VWS V14.01,2013-04-11 12:40:00,
2013-04-11 07:45:00,30.0,29.0,29.71,NNE,27,2.0,4.0,96,0.00,,OVC004,0.11,VWS V14.01,2013-04-11 12:45:00,
2013-04-11 07:50:00,30.1,29.1,29.71,ENE,61,1.0,5.0,96,0.00,,OVC004,0.11,VWS V14.01,2013-04-11 12:50:00,
2013-04-11 07:55:00,30.2,29.2,29.71,East,79,3.0,4.0,96,0.00,,OVC004,0.11,VWS V14.01,2013-04-11 12:55:00,
2013-04-11 08:00:00,30.2,29.2,29.71,NE,49,3.0,4.0,96,0.00,,OVC004,0.11,VWS V14.01,2013-04-11 13:00:00,
2013-04-11 08:05:00,30.3,29.3,29.70,ENE,60,3.0,3.0,96,0.00,,OVC004,0.11,VWS V14.01,2013-04-11 13:05:00,
2013-04-11 08:10:00,30.3,29.3,29.70,East,99,3.0,4.0,96,0.00,,OVC004,0.11,VWS V14.01,2013-04-11 13:10:00,
2013-04-11 08:15:00,30.2,29.2,29.70,East,82,2.0,6.0,96,0.00,,OVC004,0.11,VWS V14.01,2013-04-11 13:15:00,
2013-04-11 08:20:00,30.3,29.3,29.70,East,86,2.0,4.0,96,0.00,,OVC004,0.11,VWS V14.01,2013-04-11 13:20:00,
2013-04-11 08:25:00,30.3,29.3,29.70,East,94,2.0,3.0,96,0.00,,OVC004,0.11,VWS V14.01,2013-04-11 13:25:00,
2013-04-11 08:30:00,30.3,29.3,29.70,ENE,61,3.0,4.0,96,0.00,,OVC004,0.11,VWS V14.01,2013-04-11 13:30:00,
2013-04-11 08:35:00,30.4,29.4,29.69,NE,43,1.0,5.0,96,0.00,,OVC006,0.11,VWS V14.01,2013-04-11 13:35:00,
2013-04-11 08:40:00,30.5,29.5,29.69,NE,44,2.0,7.0,96,0.00,,OVC006,0.11,VWS V14.01,2013-04-11 13:40:00,
2013-04-11 08:45:00,30.7,30.0,29.69,East,84,1.0,5.0,97,0.00,,OVC006,0.11,VWS V14.01,2013-04-11 13:45:00,
2013-04-11 08:50:00,31.0,30.2,29.69,East,79,4.0,4.0,97,0.00,,OVC008,0.11,VWS V14.01,2013-04-11 13:50:00,
2013-04-11 08:55:00,31.2,30.5,29.69,ENE,77,4.0,6.0,97,0.00,,OVC008,0.11,VWS V14.01,2013-04-11 13:55:00,
2013-04-11 09:00:00,31.4,30.6,29.69,ENE,77,8.0,9.0,97,0.00,,OVC008,0.11,VWS V14.01,2013-04-11 14:00:00,
2013-04-11 09:05:00,31.6,30.9,29.68,ENE,65,3.0,10.0,97,0.00,,OVC006,0.11,VWS V14.01,2013-04-11 14:05:00,
2013-04-11 09:10:00,31.9,31.1,29.69,ENE,71,4.0,7.0,97,0.00,,OVC006,0.11,VWS V14.01,2013-04-11 14:10:00,
2013-04-11 09:15:00,32.1,31.4,29.69,East,94,4.0,9.0,97,0.00,,OVC006,0.11,VWS V14.01,2013-04-11 14:15:00,
2013-04-11 09:20:00,32.2,31.5,29.69,ENE,64,4.0,5.0,97,0.00,,OVC006,0.11,VWS V14.01,2013-04-11 14:20:00,
2013-04-11 09:25:00,32.2,31.5,29.69,East,92,3.0,8.0,97,0.00,,OVC006,0.11,VWS V14.01,2013-04-11 14:25:00,
2013-04-11 09:30:00,32.0,31.2,29.69,ESE,107,6.0,9.0,97,0.00,,OVC006,0.11,VWS V14.01,2013-04-11 14:30:00,
2013-04-11 09:35:00,32.0,31.2,29.69,ENE,63,7.0,10.0,97,0.00,,OVC006,0.11,VWS V14.01,2013-04-11 14:35:00,
2013-04-11 09:40:00,32.1,31.4,29.69,ENE,66,4.0,8.0,97,0.00,,OVC006,0.11,VWS V14.01,2013-04-11 14:40:00,
2013-04-11 09:45:00,32.0,31.2,29.69,ENE,69,11.0,16.0,97,0.00,,OVC006,0.11,VWS V14.01,2013-04-11 14:45:00,
2013-04-11 09:50:00,32.0,31.2,29.69,East,84,7.0,12.0,97,0.00,,OVC012,0.11,VWS V14.01,2013-04-11 14:50:00,
2013-04-11 09:55:00,32.3,31.5,29.69,East,94,5.0,7.0,97,0.00,,OVC012,0.11,VWS V14.01,2013-04-11 14:55:00,
2013-04-11 10:00:00,32.3,31.5,29.69,NE,53,7.0,12.0,97,0.00,,OVC012,0.11,VWS V14.01,2013-04-11 15:00:00,
2013-04-11 10:05:00,32.4,31.6,29.70,ENE,77,9.0,12.0,97,0.00,,OVC013,0.11,VWS V14.01,2013-04-11 15:05:00,
2013-04-11 10:10:00,32.4,31.6,29.70,ENE,69,9.0,9.0,97,0.00,,OVC013,0.11,VWS V14.01,2013-04-11 15:10:00,
2013-04-11 10:15:00,32.4,31.6,29.69,East,82,3.0,11.0,97,0.00,,OVC013,0.11,VWS V14.01,2013-04-11 15:15:00,
2013-04-11 10:20:00,32.4,31.6,29.69,East,79,3.0,9.0,97,0.00,,OVC008,0.11,VWS V14.01,2013-04-11 15:20:00,
2013-04-11 10:25:00,32.4,31.6,29.69,NE,51,5.0,16.0,97,0.00,,OVC008,0.11,VWS V14.01,2013-04-11 15:25:00,
2013-04-11 10:30:00,32.6,31.8,29.69,East,86,3.0,8.0,97,0.00,,OVC008,0.11,VWS V14.01,2013-04-11 15:30:00,
2013-04-11 10:35:00,32.7,31.9,29.68,ESE,105,4.0,12.0,97,0.00,,OVC008,0.11,VWS V14.01,2013-04-11 15:35:00,
2013-04-11 10:40:00,32.9,32.1,29.68,ENE,74,4.0,6.0,97,0.00,,OVC008,0.11,VWS V14.01,2013-04-11 15:40:00,
2013-04-11 10:45:00,33.0,32.2,29.68,ENE,58,4.0,9.0,97,0.00,,OVC008,0.11,VWS V14.01,2013-04-11 15:45:00,
2013-04-11 10:50:00,33.0,32.2,29.69,East,89,7.0,8.0,97,0.00,,OVC008,0.11,VWS V14.01,2013-04-11 15:50:00,
2013-04-11 10:55:00,33.0,32.2,29.69,East,91,10.0,10.0,97,0.01,,OVC008,0.12,VWS V14.01,2013-04-11 15:55:00,
2013-04-11 11:00:00,33.0,32.2,29.69,East,84,6.0,10.0,97,0.01,,OVC008,0.12,VWS V14.01,2013-04-11 16:00:00,
2013-04-11 11:05:00,33.2,32.4,29.69,East,82,9.0,9.0,97,0.01,,OVC008,0.12,VWS V14.01,2013-04-11 16:05:00,
2013-04-11 11:10:00,33.2,32.4,29.69,ENE,67,6.0,9.0,97,0.01,,OVC008,0.12,VWS V14.01,2013-04-11 16:10:00,
2013-04-11 11:15:00,33.3,32.5,29.69,East,89,10.0,10.0,97,0.01,,OVC008,0.12,VWS V14.01,2013-04-11 16:15:00,
2013-04-11 11:20:00,33.2,32.4,29.69,NE,50,12.0,14.0,97,0.01,,OVC008,0.12,VWS V14.01,2013-04-11 16:20:00,
2013-04-11 11:25:00,33.2,32.4,29.69,East,83,7.0,15.0,97,0.01,,OVC008,0.12,VWS V14.01,2013-04-11 16:25:00,
2013-04-11 11:30:00,33.2,32.4,29.70,ENE,69,7.0,12.0,97,0.01,,OVC008,0.12,VWS V14.01,2013-04-11 16:30:00,
2013-04-11 11:35:00,33.1,32.3,29.70,ENE,74,9.0,20.0,97,0.01,,OVC008,0.12,VWS V14.01,2013-04-11 16:35:00,
2013-04-11 11:40:00,33.1,32.3,29.70,ENE,72,5.0,11.0,97,0.01,,OVC008,0.12,VWS V14.01,2013-04-11 16:40:00,
2013-04-11 11:45:00,33.2,32.4,29.70,East,89,6.0,13.0,97,0.01,,OVC008,0.12,VWS V14.01,2013-04-11 16:45:00,
2013-04-11 11:50:00,33.2,32.4,29.69,East,92,7.0,11.0,97,0.01,,OVC008,0.12,VWS V14.01,2013-04-11 16:50:00,
2013-04-11 11:56:00,33.2,32.4,29.69,East,82,9.0,10.0,97,0.01,,OVC008,0.12,VWS V14.01,2013-04-11 16:56:00,
2013-04-11 12:01:00,33.3,32.5,29.69,NE,46,4.0,9.0,97,0.00,,OVC008,0.12,VWS V14.01,2013-04-11 17:01:00,
2013-04-11 12:07:00,33.3,32.8,29.68,East,79,5.0,9.0,98,0.00,,OVC008,0.12,VWS V14.01,2013-04-11 17:07:00,
2013-04-11 12:13:00,33.3,32.8,29.68,East,86,4.0,10.0,98,0.00,,OVC008,0.12,VWS V14.01,2013-04-11 17:13:00,
2013-04-11 12:19:00,33.4,32.9,29.68,ENE,63,6.0,8.0,98,0.00,,OVC013,0.12,VWS V14.01,2013-04-11 17:19:00,
2013-04-11 12:25:00,33.4,32.6,29.67,ENE,61,5.0,11.0,97,0.00,,OVC013,0.12,VWS V14.01,2013-04-11 17:25:00,
2013-04-11 12:30:00,33.4,32.6,29.67,East,82,6.0,9.0,97,0.00,,OVC013,0.12,VWS V14.01,2013-04-11 17:30:00,
2013-04-11 12:35:00,33.5,32.7,29.67,ENE,70,5.0,11.0,97,0.00,,OVC013,0.12,VWS V14.01,2013-04-11 17:35:00,
2013-04-11 12:40:00,33.6,33.1,29.67,East,82,9.0,9.0,98,0.00,,OVC013,0.12,VWS V14.01,2013-04-11 17:40:00,
2013-04-11 12:46:00,33.5,32.7,29.67,ENE,72,8.0,11.0,97,0.01,,OVC013,0.13,VWS V14.01,2013-04-11 17:46:00,
2013-04-11 12:52:00,33.5,32.7,29.66,East,88,10.0,10.0,97,0.01,,OVC015,0.13,VWS V14.01,2013-04-11 17:52:00,
2013-04-11 12:58:00,33.6,33.1,29.66,ENE,71,5.0,8.0,98,0.01,,OVC015,0.13,VWS V14.01,2013-04-11 17:58:00,
2013-04-11 13:04:00,33.6,33.1,29.66,East,85,10.0,14.0,98,0.01,,OVC013,0.13,VWS V14.01,2013-04-11 18:04:00,
2013-04-11 13:10:00,33.6,32.8,29.65,ENE,76,6.0,11.0,97,0.01,,OVC013,0.13,VWS V14.01,2013-04-11 18:10:00,
2013-04-11 13:15:00,33.6,33.1,29.65,ENE,64,8.0,12.0,98,0.01,,OVC013,0.13,VWS V14.01,2013-04-11 18:15:00,
2013-04-11 13:20:00,33.6,33.1,29.64,East,88,4.0,17.0,98,0.01,,OVC013,0.13,VWS V14.01,2013-04-11 18:20:00,
2013-04-11 13:25:00,33.7,33.2,29.64,ESE,105,4.0,7.0,98,0.01,,OVC013,0.13,VWS V14.01,2013-04-11 18:25:00,
2013-04-11 13:30:00,33.8,33.3,29.64,ENE,77,5.0,7.0,98,0.01,,OVC013,0.13,VWS V14.01,2013-04-11 18:30:00,
2013-04-11 13:35:00,33.8,33.3,29.64,NE,39,3.0,9.0,98,0.01,,OVC015,0.13,VWS V14.01,2013-04-11 18:35:00,
2013-04-11 13:40:00,33.8,33.0,29.63,ESE,108,9.0,10.0,97,0.01,,OVC015,0.13,VWS V14.01,2013-04-11 18:40:00,
2013-04-11 13:45:00,33.8,33.0,29.63,East,89,12.0,15.0,97,0.01,,OVC015,0.13,VWS V14.01,2013-04-11 18:45:00,
2013-04-11 13:50:00,33.8,33.0,29.63,East,79,7.0,13.0,97,0.00,,OVC015,0.13,VWS V14.01,2013-04-11 18:50:00,
2013-04-11 13:56:00,34.0,33.5,29.62,ENE,64,3.0,9.0,98,0.01,,OVC015,0.14,VWS V14.01,2013-04-11 18:56:00,
2013-04-11 14:02:00,34.0,33.5,29.63,ENE,77,4.0,5.0,98,0.01,,OVC015,0.14,VWS V14.01,2013-04-11 19:02:00,
2013-04-11 14:08:00,34.0,33.2,29.63,ENE,58,4.0,9.0,97,0.01,,OVC015,0.14,VWS V14.01,2013-04-11 19:08:00,
2013-04-11 14:14:00,34.1,33.6,29.64,East,83,3.0,11.0,98,0.01,,OVC015,0.14,VWS V14.01,2013-04-11 19:14:00,
2013-04-11 14:20:00,34.0,33.2,29.64,ENE,61,6.0,14.0,97,0.01,,OVC013,0.14,VWS V14.01,2013-04-11 19:20:00,
2013-04-11 14:25:00,33.9,33.1,29.65,East,85,6.0,11.0,97,0.02,,OVC013,0.15,VWS V14.01,2013-04-11 19:25:00,
2013-04-11 14:30:00,33.9,33.1,29.65,ENE,64,4.0,11.0,97,0.02,,OVC013,0.15,VWS V14.01,2013-04-11 19:30:00,
2013-04-11 14:36:00,34.0,33.2,29.65,ENE,75,5.0,11.0,97,0.02,,OVC013,0.15,VWS V14.01,2013-04-11 19:36:00,
2013-04-11 14:42:00,34.0,33.2,29.64,East,82,9.0,9.0,97,0.04,,OVC013,0.17,VWS V14.01,2013-04-11 19:42:00,
2013-04-11 14:48:00,34.0,33.2,29.64,East,81,3.0,7.0,97,0.05,,OVC015,0.18,VWS V14.01,2013-04-11 19:48:00,
2013-04-11 14:54:00,34.1,33.6,29.64,East,81,8.0,9.0,98,0.06,,OVC015,0.19,VWS V14.01,2013-04-11 19:54:00,
2013-04-11 15:00:00,34.2,33.7,29.64,ENE,67,7.0,8.0,98,0.06,,OVC015,0.20,VWS V14.01,2013-04-11 20:00:00,
2013-04-11 15:05:00,34.2,33.7,29.64,ENE,63,9.0,11.0,98,0.06,,OVC016,0.20,VWS V14.01,2013-04-11 20:05:00,
2013-04-11 15:10:00,34.2,33.7,29.64,East,84,2.0,10.0,98,0.07,,OVC016,0.21,VWS V14.01,2013-04-11 20:10:00,
2013-04-11 15:15:00,34.1,33.3,29.64,East,82,7.0,13.0,97,0.07,,OVC016,0.21,VWS V14.01,2013-04-11 20:15:00,
2013-04-11 15:20:00,34.2,33.7,29.64,ENE,66,5.0,7.0,98,0.08,,OVC016,0.22,VWS V14.01,2013-04-11 20:20:00,
2013-04-11 15:25:00,34.2,33.7,29.64,NE,53,7.0,8.0,98,0.08,,OVC016,0.22,VWS V14.01,2013-04-11 20:25:00,
2013-04-11 15:30:00,34.2,33.7,29.63,East,85,6.0,8.0,98,0.08,,OVC016,0.23,VWS V14.01,2013-04-11 20:30:00,
2013-04-11 15:35:00,34.3,33.8,29.63,ENE,71,3.0,6.0,98,0.09,,OVC016,0.24,VWS V14.01,2013-04-11 20:35:00,
2013-04-11 15:40:00,34.2,33.7,29.63,ENE,69,7.0,10.0,98,0.09,,OVC016,0.24,VWS V14.01,2013-04-11 20:40:00,
2013-04-11 15:45:00,34.2,33.7,29.63,ENE,71,7.0,7.0,98,0.08,,OVC016,0.25,VWS V14.01,2013-04-11 20:45:00,
2013-04-11 15:50:00,34.1,33.6,29.63,East,84,2.0,12.0,98,0.07,,OVC016,0.25,VWS V14.01,2013-04-11 20:50:00,
2013-04-11 15:55:00,34.1,33.6,29.63,ENE,61,1.0,8.0,98,0.08,,OVC016,0.26,VWS V14.01,2013-04-11 20:55:00,
2013-04-11 16:00:00,34.1,33.6,29.63,ENE,64,8.0,8.0,98,0.07,,OVC016,0.26,VWS V14.01,2013-04-11 21:00:00,
2013-04-11 16:05:00,34.2,33.7,29.64,ENE,76,5.0,8.0,98,0.07,,OVC018,0.27,VWS V14.01,2013-04-11 21:05:00,
2013-04-11 16:10:00,34.2,33.7,29.63,East,88,4.0,5.0,98,0.07,,OVC018,0.27,VWS V14.01,2013-04-11 21:10:00,
2013-04-11 16:15:00,34.1,33.6,29.63,NE,54,4.0,6.0,98,0.07,,OVC018,0.28,VWS V14.01,2013-04-11 21:15:00,
2013-04-11 16:20:00,34.0,33.5,29.63,ENE,71,4.0,8.0,98,0.07,,OVC015,0.28,VWS V14.01,2013-04-11 21:20:00,
2013-04-11 16:25:00,34.1,33.6,29.63,ENE,71,3.0,5.0,98,0.07,,OVC015,0.29,VWS V14.01,2013-04-11 21:25:00,
2013-04-11 16:31:00,34.0,33.5,29.63,NNE,14,5.0,8.0,98,0.07,,OVC015,0.29,VWS V14.01,2013-04-11 21:31:00,
2013-04-11 16:36:00,34.0,33.5,29.63,East,94,4.0,4.0,98,0.06,,OVC014,0.30,VWS V14.01,2013-04-11 21:36:00,
2013-04-11 16:42:00,34.0,33.5,29.63,ESE,107,10.0,10.0,98,0.06,,OVC014,0.30,VWS V14.01,2013-04-11 21:42:00,
2013-04-11 16:49:00,33.9,33.4,29.63,ENE,64,4.0,10.0,98,0.05,,OVC014,0.30,VWS V14.01,2013-04-11 21:49:00,
2013-04-11 16:55:00,33.8,33.3,29.63,ENE,73,5.0,8.0,98,0.06,,OVC014,0.31,VWS V14.01,2013-04-11 21:55:00,
2013-04-11 17:00:00,33.8,33.3,29.63,East,79,8.0,10.0,98,0.05,,OVC014,0.31,VWS V14.01,2013-04-11 22:00:00,
2013-04-11 17:05:00,33.8,33.3,29.63,ENE,68,2.0,9.0,98,0.06,,OVC014,0.32,VWS V14.01,2013-04-11 22:05:00,
2013-04-11 17:10:00,33.8,33.3,29.64,ENE,71,3.0,5.0,98,0.05,,OVC014,0.32,VWS V14.01,2013-04-11 22:10:00,
2013-04-11 17:15:00,33.7,33.2,29.64,East,84,5.0,8.0,98,0.05,,OVC014,0.32,VWS V14.01,2013-04-11 22:15:00,
2013-04-11 17:21:00,33.7,33.2,29.64,East,79,2.0,9.0,98,0.05,,OVC014,0.33,VWS V14.01,2013-04-11 22:21:00,
2013-04-11 17:25:00,33.8,33.3,29.63,ENE,60,2.0,7.0,98,0.05,,OVC014,0.33,VWS V14.01,2013-04-11 22:25:00,
2013-04-11 17:31:00,33.8,33.3,29.63,East,94,3.0,5.0,98,0.04,,OVC014,0.33,VWS V14.01,2013-04-11 22:31:00,
2013-04-11 17:36:00,33.6,33.1,29.63,ENE,71,2.0,5.0,98,0.04,,OVC013,0.33,VWS V14.01,2013-04-11 22:36:00,
2013-04-11 17:41:00,33.6,33.1,29.64,ENE,77,5.0,5.0,98,0.04,,OVC013,0.34,VWS V14.01,2013-04-11 22:41:00,
2013-04-11 17:46:00,33.6,33.1,29.64,East,89,2.0,6.0,98,0.04,,OVC013,0.34,VWS V14.01,2013-04-11 22:46:00,
2013-04-11 17:51:00,33.5,33.0,29.64,ENE,77,1.0,4.0,98,0.04,,OVC013,0.34,VWS V14.01,2013-04-11 22:51:00,
2013-04-11 17:56:00,33.5,33.0,29.64,ENE,67,9.0,9.0,98,0.03,,OVC013,0.34,VWS V14.01,2013-04-11 22:56:00,
2013-04-11 18:01:00,33.4,32.9,29.64,East,82,6.0,9.0,98,0.03,,OVC013,0.34,VWS V14.01,2013-04-11 23:01:00,
2013-04-11 18:06:00,33.4,32.9,29.64,East,79,3.0,10.0,98,0.04,,OVC007,0.35,VWS V14.01,2013-04-11 23:06:00,
2013-04-11 18:11:00,33.3,32.8,29.64,East,84,3.0,9.0,98,0.03,,OVC007,0.35,VWS V14.01,2013-04-11 23:11:00,
2013-04-11 18:16:00,33.3,32.8,29.64,East,79,2.0,8.0,98,0.03,,OVC007,0.35,VWS V14.01,2013-04-11 23:16:00,
2013-04-11 18:21:00,33.2,32.7,29.64,ENE,64,2.0,6.0,98,0.03,,OVC011,0.35,VWS V14.01,2013-04-11 23:21:00,
2013-04-11 18:26:00,33.1,32.6,29.64,East,85,6.0,6.0,98,0.02,,OVC011,0.35,VWS V14.01,2013-04-11 23:26:00,
2013-04-11 18:31:00,33.0,32.5,29.64,ENE,74,5.0,9.0,98,0.02,,OVC011,0.35,VWS V14.01,2013-04-11 23:31:00,
2013-04-11 18:36:00,32.9,32.4,29.64,ENE,57,9.0,9.0,98,0.02,,OVC011,0.35,VWS V14.01,2013-04-11 23:36:00,
2013-04-11 18:41:00,32.8,32.3,29.63,East,81,2.0,9.0,98,0.03,,OVC011,0.36,VWS V14.01,2013-04-11 23:41:00,
2013-04-11 18:46:00,32.7,32.2,29.63,ENE,64,5.0,8.0,98,0.02,,OVC011,0.36,VWS V14.01,2013-04-11 23:46:00,
2013-04-11 18:51:00,32.7,32.2,29.63,East,81,7.0,7.0,98,0.02,,OVC011,0.36,VWS V14.01,2013-04-11 23:51:00,
2013-04-11 18:56:00,32.6,32.1,29.63,East,91,3.0,7.0,98,0.02,,OVC011,0.36,VWS V14.01,2013-04-11 23:56:00,
2013-04-11 19:01:00,32.6,32.1,29.63,ENE,74,4.0,4.0,98,0.02,,OVC011,0.36,VWS V14.01,2013-04-12 00:01:00,
2013-04-11 19:06:00,32.6,32.1,29.63,NNE,25,1.0,3.0,98,0.02,,OVC007,0.36,VWS V14.01,2013-04-12 00:06:00,
2013-04-11 19:11:00,32.6,32.1,29.63,East,79,3.0,5.0,98,0.01,,OVC007,0.36,VWS V14.01,2013-04-12 00:11:00,
2013-04-11 19:16:00,32.6,32.1,29.62,East,98,2.0,6.0,98,0.01,,OVC007,0.36,VWS V14.01,2013-04-12 00:16:00,
2013-04-11 19:21:00,32.6,32.1,29.62,ESE,106,3.0,5.0,98,0.01,,OVC007,0.36,VWS V14.01,2013-04-12 00:21:00,
2013-04-11 19:26:00,32.6,32.1,29.62,ESE,103,2.0,4.0,98,0.01,,OVC007,0.36,VWS V14.01,2013-04-12 00:26:00,
2013-04-11 19:31:00,32.6,32.1,29.62,East,100,3.0,5.0,98,0.01,,OVC007,0.36,VWS V14.01,2013-04-12 00:31:00,
2013-04-11 19:36:00,32.6,32.1,29.62,NNE,26,0.0,3.0,98,0.01,,OVC007,0.36,VWS V14.01,2013-04-12 00:36:00,
2013-04-11 19:41:00,32.6,32.1,29.62,East,91,3.0,5.0,98,0.01,,OVC007,0.36,VWS V14.01,2013-04-12 00:41:00,
2013-04-11 19:46:00,32.5,32.0,29.62,NE,51,2.0,4.0,98,0.00,,OVC007,0.36,VWS V14.01,2013-04-12 00:46:00,
2013-04-11 19:51:00,32.5,32.0,29.62,NNW,343,3.0,3.0,98,0.00,,OVC007,0.36,VWS V14.01,2013-04-12 00:51:00,
2013-04-11 19:56:00,32.5,32.0,29.62,East,86,6.0,11.0,98,0.00,,OVC007,0.36,VWS V14.01,2013-04-12 00:56:00,
2013-04-11 20:01:00,32.4,31.9,29.63,ENE,64,2.0,6.0,98,0.00,,OVC007,0.36,VWS V14.01,2013-04-12 01:01:00,
2013-04-11 20:06:00,32.4,31.9,29.63,East,81,2.0,5.0,98,0.00,,OVC012,0.36,VWS V14.01,2013-04-12 01:06:00,
2013-04-11 20:11:00,32.4,31.9,29.63,ENE,61,1.0,2.0,98,0.00,,OVC012,0.36,VWS V14.01,2013-04-12 01:11:00,
2013-04-11 20:16:00,32.3,31.8,29.63,NE,53,0.0,2.0,98,0.00,,OVC012,0.36,VWS V14.01,2013-04-12 01:16:00,
2013-04-11 20:21:00,32.3,31.8,29.63,ENE,77,2.0,2.0,98,0.00,,OVC012,0.36,VWS V14.01,2013-04-12 01:21:00,
2013-04-11 20:26:00,32.3,31.8,29.63,ENE,63,2.0,4.0,98,0.00,,OVC012,0.36,VWS V14.01,2013-04-12 01:26:00,
2013-04-11 20:31:00,32.3,31.8,29.63,East,91,1.0,3.0,98,0.00,,OVC012,0.36,VWS V14.01,2013-04-12 01:31:00,
2013-04-11 20:36:00,32.2,31.7,29.63,East,84,2.0,5.0,98,0.00,,OVC005,0.36,VWS V14.01,2013-04-12 01:36:00,
2013-04-11 20:41:00,32.2,31.7,29.63,NE,53,2.0,3.0,98,0.00,,OVC005,0.36,VWS V14.01,2013-04-12 01:41:00,
2013-04-11 20:46:00,32.1,31.6,29.63,ESE,105,2.0,3.0,98,0.00,,OVC005,0.36,VWS V14.01,2013-04-12 01:46:00,
2013-04-11 20:51:00,32.1,31.6,29.63,East,84,0.0,2.0,98,0.00,,OVC005,0.36,VWS V14.01,2013-04-12 01:51:00,
2013-04-11 20:56:00,32.0,31.5,29.63,ENE,67,2.0,3.0,98,0.00,,OVC005,0.36,VWS V14.01,2013-04-12 01:56:00,
2013-04-11 21:01:00,32.0,31.5,29.63,East,86,1.0,3.0,98,0.00,,OVC005,0.36,VWS V14.01,2013-04-12 02:01:00,
2013-04-11 21:06:00,32.0,31.5,29.63,East,87,0.0,4.0,98,0.00,,OVC016,0.36,VWS V14.01,2013-04-12 02:06:00,
2013-04-11 21:11:00,31.9,31.4,29.64,ENE,58,0.0,4.0,98,0.00,,OVC016,0.36,VWS V14.01,2013-04-12 02:11:00,
2013-04-11 21:16:00,31.9,31.4,29.64,ESE,111,1.0,1.0,98,0.00,,OVC016,0.36,VWS V14.01,2013-04-12 02:16:00,
2013-04-11 21:21:00,31.9,31.4,29.64,ENE,70,1.0,2.0,98,0.00,,OVC011,0.36,VWS V14.01,2013-04-12 02:21:00,
2013-04-11 21:26:00,31.9,31.4,29.64,East,81,2.0,2.0,98,0.00,,OVC011,0.36,VWS V14.01,2013-04-12 02:26:00,
2013-04-11 21:31:00,31.8,31.3,29.64,East,99,1.0,2.0,98,0.00,,OVC011,0.36,VWS V14.01,2013-04-12 02:31:00,
2013-04-11 21:36:00,31.7,31.2,29.64,NE,47,1.0,5.0,98,0.00,,OVC011,0.36,VWS V14.01,2013-04-12 02:36:00,
2013-04-11 21:41:00,31.5,31.0,29.64,ENE,58,2.0,7.0,98,0.00,,OVC011,0.36,VWS V14.01,2013-04-12 02:41:00,
2013-04-11 21:46:00,31.3,30.8,29.64,NE,53,2.0,5.0,98,0.00,,OVC011,0.36,VWS V14.01,2013-04-12 02:46:00,
2013-04-11 21:51:00,31.2,30.7,29.64,East,86,1.0,3.0,98,0.00,,OVC011,0.36,VWS V14.01,2013-04-12 02:51:00,
2013-04-11 21:56:00,31.2,30.7,29.64,East,82,0.0,1.0,98,0.00,,OVC011,0.36,VWS V14.01,2013-04-12 02:56:00,
2013-04-11 22:01:00,31.2,30.7,29.64,ENE,71,0.0,1.0,98,0.00,,OVC011,0.36,VWS V14.01,2013-04-12 03:01:00,
2013-04-11 22:06:00,31.1,30.6,29.64,ENE,71,2.0,2.0,98,0.00,,OVC024,0.36,VWS V14.01,2013-04-12 03:06:00,
2013-04-11 22:11:00,31.1,30.6,29.64,NE,43,1.0,2.0,98,0.00,,OVC024,0.36,VWS V14.01,2013-04-12 03:11:00,
2013-04-11 22:16:00,31.0,30.5,29.64,ENE,74,1.0,3.0,98,0.00,,OVC024,0.36,VWS V14.01,2013-04-12 03:16:00,
2013-04-11 22:21:00,30.9,30.4,29.64,East,89,1.0,5.0,98,0.00,,OVC011,0.36,VWS V14.01,2013-04-12 03:21:00,
2013-04-11 22:26:00,30.8,30.3,29.64,ENE,72,0.0,3.0,98,0.00,,OVC011,0.36,VWS V14.01,2013-04-12 03:26:00,
2013-04-11 22:31:00,30.8,30.3,29.64,ENE,78,3.0,3.0,98,0.00,,OVC011,0.36,VWS V14.01,2013-04-12 03:31:00,
2013-04-11 22:36:00,30.8,30.3,29.64,NNE,33,3.0,4.0,98,0.00,,OVC009,0.36,VWS V14.01,2013-04-12 03:36:00,
2013-04-11 22:41:00,30.8,30.3,29.64,East,97,1.0,3.0,98,0.00,,OVC009,0.36,VWS V14.01,2013-04-12 03:41:00,
2013-04-11 22:46:00,30.7,30.2,29.64,East,82,2.0,2.0,98,0.00,,OVC009,0.36,VWS V14.01,2013-04-12 03:46:00,
2013-04-11 22:51:00,30.7,30.2,29.64,NE,51,1.0,2.0,98,0.00,,OVC008,0.36,VWS V14.01,2013-04-12 03:51:00,
2013-04-11 22:56:00,30.7,30.2,29.64,ENE,76,1.0,2.0,98,0.00,,OVC008,0.36,VWS V14.01,2013-04-12 03:56:00,
2013-04-11 23:00:00,30.6,30.1,29.64,East,99,1.0,2.0,98,0.00,,OVC008,0.36,VWS V14.01,2013-04-12 04:00:00,
2013-04-11 23:02:00,30.6,30.1,29.64,ENE,58,1.0,1.0,98,0.00,,OVC014,0.36,VWS V14.01,2013-04-12 04:02:00,
2013-04-11 23:04:00,30.5,30.0,29.64,East,96,3.0,3.0,98,0.00,,OVC014,0.36,VWS V14.01,2013-04-12 04:04:00,
2013-04-11 23:08:00,30.5,30.0,29.64,East,86,1.0,3.0,98,0.00,,OVC014,0.36,VWS V14.01,2013-04-12 04:08:00,
2013-04-11 23:14:00,30.4,29.9,29.63,East,100,3.0,3.0,98,0.00,,OVC014,0.36,VWS V14.01,2013-04-12 04:14:00,
2013-04-11 23:20:00,30.4,29.9,29.64,North,350,1.0,2.0,98,0.00,,OVC014,0.36,VWS V14.01,2013-04-12 04:20:00,
2013-04-11 23:26:00,30.3,29.8,29.63,ENE,77,0.0,2.0,98,0.00,,OVC014,0.36,VWS V14.01,2013-04-12 04:26:00,
2013-04-11 23:31:00,30.3,29.8,29.63,ENE,74,1.0,2.0,98,0.00,,OVC014,0.36,VWS V14.01,2013-04-12 04:31:00,
2013-04-11 23:36:00,30.3,29.8,29.64,ESE,103,0.0,4.0,98,0.00,,OVC012,0.36,VWS V14.01,2013-04-12 04:36:00,
2013-04-11 23:41:00,30.3,29.8,29.64,ENE,58,1.0,2.0,98,0.00,,OVC012,0.36,VWS V14.01,2013-04-12 04:41:00,
2013-04-11 23:46:00,30.2,29.7,29.64,East,79,2.0,4.0,98,0.00,,OVC012,0.36,VWS V14.01,2013-04-12 04:46:00,
2013-04-11 23:51:00,30.2,29.7,29.64,East,92,4.0,4.0,98,0.00,,OVC014,0.36,VWS V14.01,2013-04-12 04:51:00,
2013-04-11 23:56:00,30.2,29.7,29.64,East,79,0.0,4.0,98,0.00,,OVC014,0.36,VWS V14.01,2013-04-12 04:56:00,